Terminal Aerodrome Forecast
Issued by NWS St Louis, MO

Home | Current Version | Previous Version | Text Only | Print | Product List | Glossary On
Versions: 1 2 3 4 5 6 7 8 9 10 11 12 13 14 15 16 17 18 19 20
000
FTUS43 KLSX 282300
TAFCOU
TAF
KCOU 282338Z 2900/2924 16008KT P6SM SCT060
     FM290100 14006KT P6SM SCT250
     FM291500 19010KT P6SM SCT035 BKN120
     FM292100 20010KT P6SM VCTS SCT045CB BKN120=

USA.gov is the U.S. government's official web portal to all federal, state and local government web resources and services.